Time;durP1;ratioP1;P1;durP2;ratioP2;P2;SDS_P1;SDS_P2;PMS_P1;PMS_P2;Temp;Humidity;BMP_temperature;BMP_pressure;BME280_temperature;BME280_humidity;BME280_pressure;Samples;Min_cycle;Max_cycle;Signal;HPM_P1;HPM_P2
2023/09/22 00:00:03;;;;;;;6.65;3.35;;;;;;;;;;5022073;28;20422;-40
2023/09/22 00:02:28;;;;;;;7.57;3.60;;;;;;;;;;5024589;28;20025;-40
2023/09/22 00:04:54;;;;;;;8.63;3.60;;;;;;;;;;5025183;28;20026;-40
2023/09/22 00:07:19;;;;;;;7.80;3.55;;;;;;;;;;5015158;28;20025;-40
2023/09/22 00:09:45;;;;;;;7.40;4.10;;;;;;;;;;5022222;28;20515;-39
2023/09/22 00:12:10;;;;;;;8.03;3.23;;;;;;;;;;5025667;28;20358;-40
2023/09/22 00:14:35;;;;;;;8.55;3.72;;;;;;;;;;5024110;28;20306;-39
2023/09/22 00:17:01;;;;;;;9.30;3.60;;;;;;;;;;5021085;28;20095;-39
2023/09/22 00:19:27;;;;;;;12.77;4.93;;;;;;;;;;5018617;28;20018;-40
2023/09/22 00:21:55;;;;;;;12.23;4.72;;;;;;;;;;5024236;28;20160;-39
2023/09/22 00:24:21;;;;;;;6.95;3.25;;;;;;;;;;5023661;28;20091;-40
2023/09/22 00:26:46;;;;;;;6.82;3.45;;;;;;;;;;5021322;28;20029;-40
2023/09/22 00:29:11;;;;;;;5.73;3.37;;;;;;;;;;5020373;28;20412;-40
2023/09/22 00:31:36;;;;;;;8.57;3.67;;;;;;;;;;5021554;28;20324;-39
2023/09/22 00:34:02;;;;;;;8.20;3.30;;;;;;;;;;5024012;28;20484;-40
2023/09/22 00:36:27;;;;;;;9.33;3.60;;;;;;;;;;5020935;28;20026;-39
2023/09/22 00:38:52;;;;;;;9.13;3.50;;;;;;;;;;5028000;28;20272;-40
2023/09/22 00:41:17;;;;;;;12.52;4.20;;;;;;;;;;5023480;28;20353;-40
2023/09/22 00:43:43;;;;;;;5.50;3.80;;;;;;;;;;5019922;28;20026;-40
2023/09/22 00:46:11;;;;;;;12.63;3.90;;;;;;;;;;5019714;28;20284;-40
2023/09/22 00:48:36;;;;;;;7.35;3.03;;;;;;;;;;5026185;28;20272;-40
2023/09/22 00:51:02;;;;;;;10.05;3.55;;;;;;;;;;5021862;28;20021;-40
2023/09/22 00:53:28;;;;;;;9.20;3.33;;;;;;;;;;5024541;28;20822;-40
2023/09/22 00:55:53;;;;;;;10.85;4.35;;;;;;;;;;5025227;28;20030;-39
2023/09/22 00:58:19;;;;;;;7.97;3.30;;;;;;;;;;5024778;28;20018;-40
2023/09/22 01:00:48;;;;;;;7.65;3.88;;;;;;;;;;5019439;28;20125;-39
2023/09/22 01:03:14;;;;;;;6.90;2.90;;;;;;;;;;5020577;28;20017;-40
2023/09/22 01:05:39;;;;;;;8.27;3.25;;;;;;;;;;5019375;28;20021;-40
2023/09/22 01:08:04;;;;;;;7.63;3.22;;;;;;;;;;5019357;28;20033;-40
2023/09/22 01:10:40;;;;;;;11.57;3.47;;;;;;;;;;5023717;28;20048;-40
2023/09/22 01:13:06;;;;;;;12.02;3.63;;;;;;;;;;5023748;28;20029;-40
2023/09/22 01:15:35;;;;;;;8.45;3.75;;;;;;;;;;5024895;28;20021;-40
2023/09/22 01:18:00;;;;;;;11.55;3.85;;;;;;;;;;5019563;28;20029;-40
2023/09/22 01:20:25;;;;;;;6.22;3.65;;;;;;;;;;5027931;28;20024;-40
2023/09/22 01:22:51;;;;;;;8.27;3.93;;;;;;;;;;5025824;28;20025;-40
2023/09/22 01:25:16;;;;;;;10.90;3.60;;;;;;;;;;5019421;28;20400;-40
2023/09/22 01:27:42;;;;;;;9.73;4.07;;;;;;;;;;5019538;28;20060;-39
2023/09/22 01:30:07;;;;;;;6.40;4.33;;;;;;;;;;5023383;28;20295;-39
2023/09/22 01:32:33;;;;;;;9.77;4.95;;;;;;;;;;5024963;28;20642;-39
2023/09/22 01:34:58;;;;;;;8.50;3.80;;;;;;;;;;5022014;28;20100;-39
2023/09/22 01:37:28;;;;;;;18.60;5.03;;;;;;;;;;5019424;28;20997;-40
2023/09/22 01:39:55;;;;;;;11.50;4.32;;;;;;;;;;5025831;28;20021;-39
2023/09/22 01:42:20;;;;;;;10.07;3.78;;;;;;;;;;5022376;28;20018;-40
2023/09/22 01:44:46;;;;;;;7.90;3.65;;;;;;;;;;5020052;28;20080;-40
2023/09/22 01:47:11;;;;;;;8.32;4.07;;;;;;;;;;5021159;28;20022;-39
2023/09/22 01:49:37;;;;;;;5.05;2.58;;;;;;;;;;5022432;28;20545;-40
2023/09/22 01:52:02;;;;;;;8.03;4.03;;;;;;;;;;5022099;28;20025;-40
2023/09/22 01:54:27;;;;;;;10.77;3.70;;;;;;;;;;5026444;28;20322;-40
2023/09/22 01:56:52;;;;;;;10.87;4.30;;;;;;;;;;5022139;28;20032;-39
2023/09/22 01:59:18;;;;;;;11.87;4.47;;;;;;;;;;5022233;28;20028;-40
2023/09/22 02:01:43;;;;;;;12.37;3.80;;;;;;;;;;5022412;28;20030;-39
2023/09/22 02:04:08;;;;;;;9.98;4.53;;;;;;;;;;5026381;28;20024;-40
2023/09/22 02:06:33;;;;;;;9.83;3.90;;;;;;;;;;5022100;28;20681;-40
2023/09/22 02:08:59;;;;;;;10.73;4.10;;;;;;;;;;5018375;28;20036;-40
2023/09/22 02:11:24;;;;;;;13.03;4.17;;;;;;;;;;5019439;28;20798;-39
2023/09/22 02:13:49;;;;;;;8.97;4.47;;;;;;;;;;5019798;28;20052;-40
2023/09/22 02:16:14;;;;;;;11.67;4.87;;;;;;;;;;5022068;28;20045;-40
2023/09/22 02:18:40;;;;;;;10.73;4.20;;;;;;;;;;5019352;28;20028;-40
2023/09/22 02:21:06;;;;;;;10.83;5.37;;;;;;;;;;5021837;28;20264;-39
2023/09/22 02:23:31;;;;;;;6.47;3.35;;;;;;;;;;5024558;28;20013;-40
2023/09/22 02:25:57;;;;;;;11.30;4.32;;;;;;;;;;5024442;28;20121;-40
2023/09/22 02:28:23;;;;;;;10.10;3.92;;;;;;;;;;5016372;28;20108;-39
2023/09/22 02:30:48;;;;;;;12.43;4.63;;;;;;;;;;5016684;28;20021;-40
2023/09/22 02:33:14;;;;;;;8.50;4.23;;;;;;;;;;5023132;28;20039;-39
2023/09/22 02:35:42;;;;;;;12.63;4.97;;;;;;;;;;5020520;28;20295;-40
2023/09/22 02:38:07;;;;;;;7.90;4.47;;;;;;;;;;5021184;28;20047;-39
2023/09/22 02:40:33;;;;;;;11.97;4.60;;;;;;;;;;5021258;28;20018;-39
2023/09/22 02:42:58;;;;;;;14.60;4.97;;;;;;;;;;5017242;28;20273;-39
2023/09/22 02:45:23;;;;;;;9.32;4.30;;;;;;;;;;5019666;28;20072;-40
2023/09/22 02:47:49;;;;;;;10.30;3.97;;;;;;;;;;5022411;28;20029;-40
2023/09/22 02:50:17;;;;;;;7.97;4.10;;;;;;;;;;5017345;28;20113;-40
2023/09/22 02:52:42;;;;;;;7.57;4.70;;;;;;;;;;5018494;28;20018;-39
2023/09/22 02:55:09;;;;;;;10.82;4.80;;;;;;;;;;5017749;28;20036;-40
2023/09/22 02:57:35;;;;;;;9.55;5.32;;;;;;;;;;5021899;28;20488;-40
2023/09/22 03:00:01;;;;;;;14.32;5.05;;;;;;;;;;5021412;28;20080;-40
2023/09/22 03:02:26;;;;;;;11.63;5.18;;;;;;;;;;5021345;28;20298;-40
2023/09/22 03:04:51;;;;;;;11.03;5.47;;;;;;;;;;5019803;28;20097;-40
2023/09/22 03:07:17;;;;;;;9.40;5.77;;;;;;;;;;5025369;28;20022;-39
2023/09/22 03:09:42;;;;;;;11.00;4.37;;;;;;;;;;5016178;28;20021;-39
2023/09/22 03:12:07;;;;;;;9.73;5.43;;;;;;;;;;5023926;28;20484;-39
2023/09/22 03:14:32;;;;;;;9.13;4.47;;;;;;;;;;5017063;28;20287;-40
2023/09/22 03:16:59;;;;;;;11.73;5.07;;;;;;;;;;5022470;28;20639;-40
2023/09/22 03:19:25;;;;;;;16.75;6.18;;;;;;;;;;5016865;28;20268;-39
2023/09/22 03:21:50;;;;;;;10.23;5.03;;;;;;;;;;5019912;28;20018;-40
2023/09/22 03:24:15;;;;;;;7.25;5.15;;;;;;;;;;5025143;28;20408;-39
2023/09/22 03:26:41;;;;;;;8.47;4.87;;;;;;;;;;5022980;28;20648;-40
2023/09/22 03:29:06;;;;;;;14.07;6.75;;;;;;;;;;5022205;28;20272;-39
2023/09/22 03:31:31;;;;;;;9.75;4.65;;;;;;;;;;5026293;28;20028;-40
2023/09/22 03:33:56;;;;;;;9.73;5.17;;;;;;;;;;5021523;28;20029;-39
2023/09/22 03:36:22;;;;;;;14.93;5.23;;;;;;;;;;5025015;28;20666;-40
2023/09/22 03:38:48;;;;;;;7.40;4.43;;;;;;;;;;5020585;28;20314;-39
2023/09/22 03:41:15;;;;;;;9.13;4.85;;;;;;;;;;5017860;28;20092;-40
2023/09/22 03:43:41;;;;;;;8.60;4.85;;;;;;;;;;5021294;28;20033;-39
2023/09/22 03:46:07;;;;;;;10.70;5.68;;;;;;;;;;5020310;28;20033;-39
2023/09/22 03:48:32;;;;;;;12.55;5.72;;;;;;;;;;5026037;28;20502;-39
2023/09/22 03:50:57;;;;;;;12.53;5.43;;;;;;;;;;5020948;28;20062;-40
2023/09/22 03:53:23;;;;;;;13.25;5.47;;;;;;;;;;5012384;28;20446;-39
2023/09/22 03:55:48;;;;;;;11.53;6.13;;;;;;;;;;5025006;28;20487;-39
2023/09/22 03:58:14;;;;;;;13.02;6.20;;;;;;;;;;5026237;28;20294;-40
2023/09/22 04:00:40;;;;;;;12.25;6.90;;;;;;;;;;5021048;28;20613;-40
2023/09/22 04:03:07;;;;;;;15.38;6.85;;;;;;;;;;5017472;28;20579;-39
2023/09/22 04:05:38;;;;;;;10.50;5.50;;;;;;;;;;5019824;28;20108;-39
2023/09/22 04:08:03;;;;;;;10.70;5.97;;;;;;;;;;5026132;28;20021;-39
2023/09/22 04:10:28;;;;;;;9.25;5.40;;;;;;;;;;5025993;28;20034;-39
2023/09/22 04:12:54;;;;;;;8.47;5.77;;;;;;;;;;5026664;28;20064;-39
2023/09/22 04:15:19;;;;;;;9.33;4.70;;;;;;;;;;5017638;28;20295;-39
2023/09/22 04:17:47;;;;;;;11.48;5.28;;;;;;;;;;5020521;28;20073;-39
2023/09/22 04:20:16;;;;;;;9.98;5.22;;;;;;;;;;5016601;28;20018;-39
2023/09/22 04:22:43;;;;;;;9.50;4.93;;;;;;;;;;5019807;28;20025;-37
2023/09/22 04:25:11;;;;;;;11.43;5.43;;;;;;;;;;5015221;28;20052;-39
2023/09/22 04:27:42;;;;;;;10.68;4.93;;;;;;;;;;5021330;28;20724;-37
2023/09/22 04:30:09;;;;;;;;;;;;;;;;;;5025412;28;20017;-39
2023/09/22 04:32:36;;;;;;;11.88;5.40;;;;;;;;;;5028157;28;20429;-38
2023/09/22 04:35:02;;;;;;;8.07;5.18;;;;;;;;;;5023757;28;20040;-37
2023/09/22 04:37:28;;;;;;;9.00;5.80;;;;;;;;;;5022134;28;20022;-38
2023/09/22 04:39:54;;;;;;;15.43;6.28;;;;;;;;;;5025953;28;20025;-39
2023/09/22 04:42:19;;;;;;;13.85;5.53;;;;;;;;;;5016479;28;20026;-38
2023/09/22 04:44:45;;;;;;;10.85;5.55;;;;;;;;;;5020554;28;21382;-40
2023/09/22 04:47:10;;;;;;;11.63;4.97;;;;;;;;;;5020668;28;20037;-38
2023/09/22 04:49:35;;;;;;;11.90;6.38;;;;;;;;;;5020135;28;20304;-40
2023/09/22 04:52:02;;;;;;;7.03;4.85;;;;;;;;;;5022059;28;20044;-37
2023/09/22 04:54:29;;;;;;;9.38;4.95;;;;;;;;;;5019723;28;20034;-38
2023/09/22 04:56:54;;;;;;;10.40;5.30;;;;;;;;;;5026040;28;20029;-38
2023/09/22 04:59:19;;;;;;;12.73;5.20;;;;;;;;;;5023037;28;20028;-38
2023/09/22 05:01:45;;;;;;;4.03;2.87;;;;;;;;;;5028040;28;20108;-38
2023/09/22 05:04:10;;;;;;;13.32;5.03;;;;;;;;;;5018282;28;24352;-38
2023/09/22 05:06:35;;;;;;;8.60;5.20;;;;;;;;;;5023505;28;20658;-39
2023/09/22 05:09:01;;;;;;;10.37;5.07;;;;;;;;;;5024990;28;20029;-40
2023/09/22 05:11:26;;;;;;;11.00;4.67;;;;;;;;;;5022275;28;20060;-40
2023/09/22 05:13:52;;;;;;;15.57;5.13;;;;;;;;;;5025923;28;20280;-40
2023/09/22 05:16:18;;;;;;;8.13;4.35;;;;;;;;;;5018194;28;20284;-40
2023/09/22 05:18:44;;;;;;;6.85;4.15;;;;;;;;;;5021121;28;20109;-40
2023/09/22 05:21:09;;;;;;;7.97;4.28;;;;;;;;;;5021862;28;20112;-40
2023/09/22 05:23:35;;;;;;;10.32;4.05;;;;;;;;;;5023348;28;20148;-40
2023/09/22 05:26:05;;;;;;;6.57;3.88;;;;;;;;;;5027570;28;20025;-40
2023/09/22 05:28:30;;;;;;;10.55;4.75;;;;;;;;;;5019431;28;20439;-40
2023/09/22 05:30:57;;;;;;;15.00;4.47;;;;;;;;;;5015896;28;24662;-40
2023/09/22 05:33:22;;;;;;;9.32;3.83;;;;;;;;;;5019501;28;20488;-40
2023/09/22 05:35:48;;;;;;;19.87;10.97;;;;;;;;;;5022386;28;20427;-40
2023/09/22 05:38:13;;;;;;;8.02;3.83;;;;;;;;;;5021188;28;20278;-40
2023/09/22 05:40:38;;;;;;;7.53;3.47;;;;;;;;;;5019157;28;20029;-40
2023/09/22 05:43:10;;;;;;;6.65;3.40;;;;;;;;;;5018873;28;20312;-40
2023/09/22 05:45:35;;;;;;;6.60;4.20;;;;;;;;;;5012303;28;20051;-40
2023/09/22 05:48:01;;;;;;;4.93;2.65;;;;;;;;;;5018897;28;20547;-40
2023/09/22 05:50:26;;;;;;;4.10;2.65;;;;;;;;;;5017116;28;20052;-39
2023/09/22 05:52:51;;;;;;;3.58;1.90;;;;;;;;;;5011595;28;20018;-39
2023/09/22 05:55:19;;;;;;;4.07;2.23;;;;;;;;;;5013692;28;20075;-39
2023/09/22 05:57:50;;;;;;;4.13;2.20;;;;;;;;;;5022181;28;20953;-39
2023/09/22 06:00:16;;;;;;;5.80;2.00;;;;;;;;;;5015617;28;20018;-40
2023/09/22 06:02:48;;;;;;;4.13;1.67;;;;;;;;;;5019012;28;20021;-39
2023/09/22 06:05:14;;;;;;;3.53;1.73;;;;;;;;;;5014956;28;20553;-40
2023/09/22 06:07:41;;;;;;;3.03;1.45;;;;;;;;;;5016898;28;20049;-40
2023/09/22 06:10:09;;;;;;;2.70;1.45;;;;;;;;;;5018391;28;20025;-39
2023/09/22 06:12:35;;;;;;;2.70;1.45;;;;;;;;;;5018102;28;20029;-39
2023/09/22 06:15:00;;;;;;;3.23;1.90;;;;;;;;;;5014006;28;20028;-39
2023/09/22 06:17:25;;;;;;;4.28;1.52;;;;;;;;;;5020975;28;21988;-40
2023/09/22 06:19:51;;;;;;;4.95;1.88;;;;;;;;;;5018410;28;20457;-39
2023/09/22 06:22:16;;;;;;;3.60;1.90;;;;;;;;;;5016601;28;20751;-40
2023/09/22 06:24:41;;;;;;;3.60;1.60;;;;;;;;;;5016182;28;21097;-39
2023/09/22 06:27:07;;;;;;;5.00;2.20;;;;;;;;;;5023743;28;20037;-40
2023/09/22 06:29:32;;;;;;;8.88;4.45;;;;;;;;;;5018430;28;20026;-40
2023/09/22 06:31:57;;;;;;;5.83;2.13;;;;;;;;;;5017569;28;20448;-39
2023/09/22 06:34:23;;;;;;;5.35;1.70;;;;;;;;;;5019552;28;20280;-40
2023/09/22 06:36:48;;;;;;;14.57;2.47;;;;;;;;;;5019712;28;20026;-40
2023/09/22 06:39:13;;;;;;;11.10;2.63;;;;;;;;;;5022132;28;20500;-40
2023/09/22 06:41:38;;;;;;;5.83;2.80;;;;;;;;;;5025355;28;20030;-40
2023/09/22 06:44:04;;;;;;;3.75;2.25;;;;;;;;;;5023372;28;20688;-39
2023/09/22 06:46:29;;;;;;;6.10;2.30;;;;;;;;;;5016486;28;20037;-40
2023/09/22 06:48:56;;;;;;;6.10;2.30;;;;;;;;;;5020254;28;20022;-39
2023/09/22 06:51:21;;;;;;;6.00;2.33;;;;;;;;;;5021839;28;20037;-40
2023/09/22 06:53:47;;;;;;;5.70;1.88;;;;;;;;;;5019920;28;20037;-39
2023/09/22 06:56:13;;;;;;;4.80;1.70;;;;;;;;;;5018021;28;20029;-40
2023/09/22 06:58:40;;;;;;;4.50;1.58;;;;;;;;;;5019408;28;20067;-39
2023/09/22 07:01:12;;;;;;;5.40;2.00;;;;;;;;;;5024078;28;20021;-40
2023/09/22 07:03:38;;;;;;;2.97;1.48;;;;;;;;;;5019519;28;20041;-40
2023/09/22 07:06:08;;;;;;;5.40;2.03;;;;;;;;;;5020011;28;20028;-39
2023/09/22 07:08:34;;;;;;;7.43;1.80;;;;;;;;;;5021915;28;21222;-40
2023/09/22 07:11:03;;;;;;;3.20;1.80;;;;;;;;;;5021528;28;20026;-40
2023/09/22 07:13:29;;;;;;;3.15;1.77;;;;;;;;;;5020073;28;20144;-40
2023/09/22 07:15:54;;;;;;;3.60;1.63;;;;;;;;;;5020329;28;20021;-39
2023/09/22 07:18:21;;;;;;;6.03;2.05;;;;;;;;;;5022319;28;20020;-40
2023/09/22 07:20:47;;;;;;;5.30;1.38;;;;;;;;;;5022163;28;20032;-39
2023/09/22 07:23:12;;;;;;;2.58;1.60;;;;;;;;;;5017343;28;20037;-40
2023/09/22 07:25:38;;;;;;;4.32;1.83;;;;;;;;;;5022701;28;20047;-40
2023/09/22 07:28:03;;;;;;;5.20;1.90;;;;;;;;;;5023922;28;20032;-40
2023/09/22 07:30:29;;;;;;;5.82;1.88;;;;;;;;;;5017973;28;20029;-39
2023/09/22 07:32:55;;;;;;;3.85;1.38;;;;;;;;;;5022156;28;20075;-39
2023/09/22 07:35:20;;;;;;;9.25;2.10;;;;;;;;;;5021398;28;20029;-40
2023/09/22 07:37:45;;;;;;;3.97;1.63;;;;;;;;;;5021200;28;20021;-39
2023/09/22 07:40:12;;;;;;;39.37;5.40;;;;;;;;;;5017104;28;20338;-40
2023/09/22 07:42:39;;;;;;;3.42;1.38;;;;;;;;;;5022551;28;20028;-40
2023/09/22 07:45:05;;;;;;;4.43;1.55;;;;;;;;;;5023990;28;20026;-39
2023/09/22 07:47:30;;;;;;;6.97;3.92;;;;;;;;;;5021843;28;20498;-39
2023/09/22 07:49:56;;;;;;;6.73;3.70;;;;;;;;;;5024797;28;20029;-39
2023/09/22 07:52:22;;;;;;;3.53;1.95;;;;;;;;;;5025301;28;20272;-39
2023/09/22 07:54:48;;;;;;;4.18;1.80;;;;;;;;;;5020166;28;20026;-39
2023/09/22 07:57:14;;;;;;;4.80;1.50;;;;;;;;;;5015339;28;20069;-39
2023/09/22 07:59:39;;;;;;;5.32;1.80;;;;;;;;;;5019615;28;20057;-39
2023/09/22 08:02:06;;;;;;;5.45;1.83;;;;;;;;;;5019904;28;20136;-39
2023/09/22 08:04:31;;;;;;;5.30;1.90;;;;;;;;;;5022061;28;20480;-40
2023/09/22 08:06:59;;;;;;;5.38;1.60;;;;;;;;;;5018364;28;20075;-39
2023/09/22 08:09:24;;;;;;;4.68;2.08;;;;;;;;;;5020521;28;20029;-39
2023/09/22 08:11:50;;;;;;;4.78;1.67;;;;;;;;;;5025285;28;20101;-40
2023/09/22 08:14:15;;;;;;;4.93;1.80;;;;;;;;;;5023588;28;20495;-40
2023/09/22 08:16:40;;;;;;;4.38;1.70;;;;;;;;;;5024822;28;20507;-40
2023/09/22 08:19:10;;;;;;;12.43;5.93;;;;;;;;;;5026516;28;20092;-40
2023/09/22 08:21:35;;;;;;;6.70;2.78;;;;;;;;;;5028430;28;20037;-39
2023/09/22 08:24:01;;;;;;;4.20;2.22;;;;;;;;;;5028924;28;20025;-39
2023/09/22 08:26:26;;;;;;;2.93;1.90;;;;;;;;;;5022034;28;20060;-39
2023/09/22 08:28:52;;;;;;;5.22;3.33;;;;;;;;;;5029550;28;20256;-39
2023/09/22 08:31:17;;;;;;;5.20;1.77;;;;;;;;;;5017798;28;21060;-39
2023/09/22 08:33:42;;;;;;;3.33;1.87;;;;;;;;;;5029636;28;20022;-39
2023/09/22 08:36:08;;;;;;;5.33;1.63;;;;;;;;;;5019796;28;20941;-40
2023/09/22 08:38:33;;;;;;;4.30;1.80;;;;;;;;;;5020905;28;20014;-39
2023/09/22 08:41:05;;;;;;;4.85;1.70;;;;;;;;;;5022143;28;20022;-40
2023/09/22 08:43:31;;;;;;;3.08;1.40;;;;;;;;;;5026326;28;20041;-37
2023/09/22 08:45:57;;;;;;;4.22;1.90;;;;;;;;;;5025527;28;20038;-37
2023/09/22 08:48:24;;;;;;;6.18;1.92;;;;;;;;;;5026085;28;20025;-39
2023/09/22 08:50:49;;;;;;;3.85;1.80;;;;;;;;;;5027491;28;20029;-39
2023/09/22 08:53:14;;;;;;;6.17;2.20;;;;;;;;;;5022678;28;20028;-40
2023/09/22 08:55:40;;;;;;;8.37;2.30;;;;;;;;;;5026223;28;20033;-40
2023/09/22 08:58:05;;;;;;;9.20;4.80;;;;;;;;;;5025935;28;20357;-40
2023/09/22 09:00:30;;;;;;;5.43;2.08;;;;;;;;;;5023118;28;20535;-39
2023/09/22 09:03:00;;;;;;;4.60;2.13;;;;;;;;;;5033536;28;20025;-39
2023/09/22 09:05:25;;;;;;;5.20;1.50;;;;;;;;;;5024084;28;20031;-39
2023/09/22 09:07:51;;;;;;;3.67;1.40;;;;;;;;;;5019116;28;20022;-39
2023/09/22 09:10:43;;;;;;;4.82;1.45;;;;;;;;;;5023271;28;20789;-39
2023/09/22 09:13:27;;;;;;;4.43;1.35;;;;;;;;;;5020104;28;20124;-39
2023/09/22 09:16:01;;;;;;;2.55;1.23;;;;;;;;;;5023101;28;20038;-39
2023/09/22 09:18:26;;;;;;;3.45;1.10;;;;;;;;;;5023079;28;20018;-40
2023/09/22 09:21:14;;;;;;;2.63;1.10;;;;;;;;;;5017838;28;20036;-40
2023/09/22 09:23:56;;;;;;;4.55;1.45;;;;;;;;;;5027549;28;20272;-40
2023/09/22 09:26:33;;;;;;;6.38;2.50;;;;;;;;;;5024107;28;20100;-40
2023/09/22 09:29:02;;;;;;;3.63;1.58;;;;;;;;;;5025994;28;21055;-40
2023/09/22 09:31:43;;;;;;;4.93;1.95;;;;;;;;;;5023719;28;20488;-39
2023/09/22 09:34:08;;;;;;;4.65;1.40;;;;;;;;;;5027552;28;20468;-39
2023/09/22 09:36:34;;;;;;;3.20;1.53;;;;;;;;;;5021404;28;20033;-39
2023/09/22 09:38:59;;;;;;;3.10;1.03;;;;;;;;;;5019969;28;20269;-40
2023/09/22 09:41:26;;;;;;;2.73;1.13;;;;;;;;;;5022187;28;20299;-39
2023/09/22 09:43:53;;;;;;;3.67;1.30;;;;;;;;;;5021884;28;20400;-39
2023/09/22 09:46:19;;;;;;;5.95;2.50;;;;;;;;;;5023043;28;20033;-39
2023/09/22 09:48:45;;;;;;;3.58;1.80;;;;;;;;;;5022095;28;20116;-39
2023/09/22 09:51:12;;;;;;;6.82;1.38;;;;;;;;;;5025555;28;20096;-40
2023/09/22 09:53:40;;;;;;;2.88;1.13;;;;;;;;;;5023636;28;20038;-39
2023/09/22 09:56:05;;;;;;;3.28;1.10;;;;;;;;;;5019722;28;20025;-40
2023/09/22 09:58:32;;;;;;;4.72;1.10;;;;;;;;;;5023052;28;24640;-40
2023/09/22 10:00:57;;;;;;;5.00;1.27;;;;;;;;;;5024441;28;20514;-39
2023/09/22 10:03:24;;;;;;;2.50;1.10;;;;;;;;;;5018060;28;20048;-40
2023/09/22 10:05:55;;;;;;;5.00;1.40;;;;;;;;;;5020539;28;20120;-40
2023/09/22 10:08:21;;;;;;;4.53;0.95;;;;;;;;;;5022761;28;20033;-39
2023/09/22 10:10:48;;;;;;;3.45;1.70;;;;;;;;;;5025104;28;20049;-40
2023/09/22 10:13:13;;;;;;;3.35;1.13;;;;;;;;;;5022080;28;20037;-39
2023/09/22 10:15:52;;;;;;;1.80;1.02;;;;;;;;;;5021938;28;20439;-40
2023/09/22 10:18:18;;;;;;;3.90;1.10;;;;;;;;;;5020735;28;20504;-39
2023/09/22 10:20:46;;;;;;;4.32;1.20;;;;;;;;;;5027534;28;20042;-39
2023/09/22 10:23:25;;;;;;;14.77;2.47;;;;;;;;;;5017492;28;20037;-39
2023/09/22 10:26:09;;;;;;;5.22;1.15;;;;;;;;;;5022664;28;20037;-40
2023/09/22 10:28:35;;;;;;;2.40;1.00;;;;;;;;;;5021934;28;20030;-39
2023/09/22 10:31:01;;;;;;;2.13;0.80;;;;;;;;;;5012976;28;20033;-39
2023/09/22 10:33:26;;;;;;;5.03;1.33;;;;;;;;;;5017723;28;20040;-39
2023/09/22 10:35:53;;;;;;;2.95;0.80;;;;;;;;;;5020023;28;20021;-39
2023/09/22 10:38:21;;;;;;;2.42;0.90;;;;;;;;;;5019820;28;20032;-42
2023/09/22 10:40:59;;;;;;;4.90;1.10;;;;;;;;;;5026685;28;20025;-40
2023/09/22 10:43:24;;;;;;;2.20;1.00;;;;;;;;;;5021153;28;20117;-39
2023/09/22 10:45:51;;;;;;;3.47;1.38;;;;;;;;;;5018128;28;20097;-40
2023/09/22 10:48:17;;;;;;;2.13;0.98;;;;;;;;;;5025230;28;20057;-39
2023/09/22 10:50:48;;;;;;;2.33;1.00;;;;;;;;;;5024830;28;20049;-40
2023/09/22 10:53:13;;;;;;;2.42;1.00;;;;;;;;;;5022665;28;20041;-39
2023/09/22 10:55:40;;;;;;;2.50;1.10;;;;;;;;;;5022454;28;20083;-39
2023/09/22 10:58:06;;;;;;;3.28;1.00;;;;;;;;;;5020564;28;20347;-39
2023/09/22 11:00:35;;;;;;;1.85;0.90;;;;;;;;;;5023652;28;20037;-39
2023/09/22 11:03:08;;;;;;;2.28;0.80;;;;;;;;;;5025589;28;20041;-39
2023/09/22 11:05:34;;;;;;;2.08;0.90;;;;;;;;;;5013721;28;20033;-39
2023/09/22 11:08:01;;;;;;;1.65;0.60;;;;;;;;;;5018361;28;20438;-39
2023/09/22 11:10:27;;;;;;;2.22;1.00;;;;;;;;;;5023241;28;20511;-39
2023/09/22 11:12:54;;;;;;;2.15;1.00;;;;;;;;;;5023266;28;20160;-40
2023/09/22 11:15:19;;;;;;;1.80;0.68;;;;;;;;;;5020111;28;20033;-39
2023/09/22 11:17:47;;;;;;;1.88;0.90;;;;;;;;;;5025445;28;20026;-40
2023/09/22 11:20:17;;;;;;;2.50;1.20;;;;;;;;;;5019015;28;20038;-40
2023/09/22 11:22:42;;;;;;;1.42;0.60;;;;;;;;;;5024240;28;20032;-39
2023/09/22 11:25:09;;;;;;;4.60;1.50;;;;;;;;;;5019156;28;20044;-39
2023/09/22 11:28:01;;;;;;;2.67;0.90;;;;;;;;;;5023981;28;20617;-39
2023/09/22 11:30:26;;;;;;;3.28;0.98;;;;;;;;;;5019322;28;20479;-39
2023/09/22 11:32:52;;;;;;;2.60;1.10;;;;;;;;;;5024706;28;20075;-39
2023/09/22 11:35:27;;;;;;;3.30;0.90;;;;;;;;;;5017693;28;20056;-40
2023/09/22 11:37:53;;;;;;;2.00;0.98;;;;;;;;;;5023541;28;20030;-39
2023/09/22 11:40:18;;;;;;;2.77;0.87;;;;;;;;;;5018097;28;20021;-40
2023/09/22 11:42:47;;;;;;;6.68;1.20;;;;;;;;;;5020616;28;20034;-40
2023/09/22 11:45:18;;;;;;;2.85;1.30;;;;;;;;;;5020477;28;20026;-39
2023/09/22 11:47:44;;;;;;;2.28;0.98;;;;;;;;;;5016512;28;20511;-40
2023/09/22 11:50:19;;;;;;;2.17;1.27;;;;;;;;;;5019589;28;20072;-40
2023/09/22 11:52:44;;;;;;;3.25;1.10;;;;;;;;;;5023643;28;20026;-39
2023/09/22 11:55:10;;;;;;;2.05;0.90;;;;;;;;;;5025010;28;20383;-39
2023/09/22 11:57:35;;;;;;;4.05;1.00;;;;;;;;;;5022123;28;20029;-39
2023/09/22 12:00:01;;;;;;;2.53;1.17;;;;;;;;;;5025512;28;20109;-40
2023/09/22 12:02:26;;;;;;;7.93;1.83;;;;;;;;;;5016678;28;20280;-38
2023/09/22 12:04:52;;;;;;;3.25;1.10;;;;;;;;;;5026509;28;20049;-39
2023/09/22 12:07:17;;;;;;;3.72;1.45;;;;;;;;;;5010142;28;20124;-38
2023/09/22 12:09:42;;;;;;;4.97;1.40;;;;;;;;;;5019798;28;20021;-38
2023/09/22 12:12:09;;;;;;;6.28;1.75;;;;;;;;;;5018281;28;20620;-39
2023/09/22 12:14:34;;;;;;;2.85;1.25;;;;;;;;;;5014238;28;20434;-38
2023/09/22 12:17:00;;;;;;;4.80;1.10;;;;;;;;;;5010716;28;20036;-38
2023/09/22 12:19:26;;;;;;;4.15;1.90;;;;;;;;;;5024906;28;20080;-38
2023/09/22 12:21:51;;;;;;;5.20;1.48;;;;;;;;;;5023210;28;20547;-38
2023/09/22 12:24:17;;;;;;;7.00;1.40;;;;;;;;;;5019233;28;20026;-39
2023/09/22 12:26:43;;;;;;;2.58;0.55;;;;;;;;;;5020929;28;20033;-38
2023/09/22 12:29:08;;;;;;;5.40;1.40;;;;;;;;;;5016621;28;20034;-38
2023/09/22 12:31:34;;;;;;;4.88;1.20;;;;;;;;;;5018228;28;20782;-38
2023/09/22 12:34:00;;;;;;;8.52;1.67;;;;;;;;;;5024824;28;20045;-38
2023/09/22 12:36:25;;;;;;;4.15;1.13;;;;;;;;;;5021919;28;20033;-38
2023/09/22 12:38:51;;;;;;;3.60;1.40;;;;;;;;;;5020543;28;20925;-40
2023/09/22 12:41:16;;;;;;;5.70;2.10;;;;;;;;;;5021562;28;20271;-40
2023/09/22 12:43:41;;;;;;;4.55;1.67;;;;;;;;;;5022548;28;20285;-38
2023/09/22 12:46:08;;;;;;;4.95;2.03;;;;;;;;;;5021463;28;20124;-38
2023/09/22 12:48:33;;;;;;;7.00;1.73;;;;;;;;;;5023848;28;20480;-40
2023/09/22 12:50:58;;;;;;;4.22;1.63;;;;;;;;;;5023304;28;20040;-38
2023/09/22 12:53:27;;;;;;;5.68;1.42;;;;;;;;;;5023601;28;20078;-38
2023/09/22 12:55:57;;;;;;;4.13;1.73;;;;;;;;;;5026545;28;20031;-39
2023/09/22 12:58:23;;;;;;;3.85;1.75;;;;;;;;;;5018525;28;20020;-39
2023/09/22 13:00:49;;;;;;;4.65;2.03;;;;;;;;;;5025765;28;20476;-39
2023/09/22 13:03:14;;;;;;;4.35;1.77;;;;;;;;;;5027220;28;20189;-39
2023/09/22 13:05:43;;;;;;;3.40;1.40;;;;;;;;;;5025589;28;21090;-39
2023/09/22 13:08:08;;;;;;;3.20;1.00;;;;;;;;;;5022916;28;20026;-39
2023/09/22 13:10:38;;;;;;;10.95;4.13;;;;;;;;;;5023156;28;20035;-39
2023/09/22 13:13:03;;;;;;;9.77;5.28;;;;;;;;;;5024081;28;20026;-39
2023/09/22 13:15:28;;;;;;;5.75;3.38;;;;;;;;;;5021152;28;20033;-39
2023/09/22 13:17:54;;;;;;;4.20;2.00;;;;;;;;;;5025930;28;20034;-39
2023/09/22 13:20:20;;;;;;;2.88;1.40;;;;;;;;;;5021529;28;20699;-39
2023/09/22 13:22:45;;;;;;;3.78;1.63;;;;;;;;;;5025851;28;20561;-39
2023/09/22 13:25:10;;;;;;;3.33;1.70;;;;;;;;;;5023824;28;20025;-40
2023/09/22 13:27:38;;;;;;;4.45;2.20;;;;;;;;;;5021826;28;20459;-40
2023/09/22 13:30:03;;;;;;;4.57;1.80;;;;;;;;;;5026285;28;20025;-40
2023/09/22 13:32:29;;;;;;;5.85;1.90;;;;;;;;;;5023416;28;20460;-39
2023/09/22 13:34:54;;;;;;;4.03;1.50;;;;;;;;;;5024969;28;20029;-40
2023/09/22 13:37:19;;;;;;;3.63;1.83;;;;;;;;;;5024435;28;20315;-40
2023/09/22 13:39:44;;;;;;;3.27;1.50;;;;;;;;;;5021746;28;20030;-40
2023/09/22 13:42:10;;;;;;;8.60;3.08;;;;;;;;;;5023691;28;20646;-40
2023/09/22 13:44:35;;;;;;;9.07;4.75;;;;;;;;;;5025943;28;20033;-39
2023/09/22 13:47:00;;;;;;;4.93;2.77;;;;;;;;;;5027565;28;20034;-40
2023/09/22 13:49:26;;;;;;;7.03;2.70;;;;;;;;;;5028130;28;20060;-39
2023/09/22 13:51:51;;;;;;;4.15;2.10;;;;;;;;;;5024014;28;20037;-39
2023/09/22 13:54:16;;;;;;;10.68;4.38;;;;;;;;;;5022023;28;20038;-38
2023/09/22 13:56:42;;;;;;;2.60;1.50;;;;;;;;;;5024872;28;20034;-39
2023/09/22 13:59:07;;;;;;;4.27;2.37;;;;;;;;;;5033945;28;20032;-39
2023/09/22 14:01:32;;;;;;;4.25;1.98;;;;;;;;;;5025733;28;20275;-40
2023/09/22 14:04:01;;;;;;;4.67;1.43;;;;;;;;;;5026644;28;20108;-40
2023/09/22 14:06:26;;;;;;;3.42;1.70;;;;;;;;;;5023715;28;20264;-39
2023/09/22 14:08:53;;;;;;;5.30;1.83;;;;;;;;;;5025892;28;20037;-40
2023/09/22 14:11:18;;;;;;;4.07;2.15;;;;;;;;;;5023786;28;20520;-38
2023/09/22 14:13:44;;;;;;;3.83;2.03;;;;;;;;;;5020818;28;20108;-38
2023/09/22 14:16:10;;;;;;;3.88;2.50;;;;;;;;;;5023461;28;20033;-39
2023/09/22 14:18:35;;;;;;;6.55;2.33;;;;;;;;;;5021173;28;20048;-38
2023/09/22 14:21:01;;;;;;;12.43;4.47;;;;;;;;;;5023794;28;20069;-38
2023/09/22 14:23:26;;;;;;;11.70;5.00;;;;;;;;;;5022263;28;20080;-39
2023/09/22 14:25:52;;;;;;;11.02;6.43;;;;;;;;;;5027002;28;20271;-39
2023/09/22 14:28:18;;;;;;;6.80;3.00;;;;;;;;;;5024601;28;20045;-39
2023/09/22 14:30:44;;;;;;;6.05;2.70;;;;;;;;;;5019033;28;20033;-38
2023/09/22 14:33:09;;;;;;;5.20;2.65;;;;;;;;;;5022297;28;20490;-38
2023/09/22 14:35:35;;;;;;;7.63;3.10;;;;;;;;;;5024405;28;20048;-38